METAR Data
IDs: Format: Raw Decoded Include TAF

Data at: 1911 UTC 25 Sep 2020

METAR for:LEBZ (Badajoz Arpt, --, SP)
Text:LEBZ 251900Z 27008KT CAVOK 20/07 Q1023
Temperature: 20.0°C ( 68°F)
Dewpoint: 7.0°C ( 45°F) [RH = 43%]
Pressure (altimeter):30.21 inches Hg (1023.0 mb)
Winds:from the W (270 degrees) at 9 MPH (8 knots; 4.1 m/s)
Visibility:6 or more sm (10+ km)
Ceiling:ceiling and visibility are OK
Clouds:unknown

TAF for:LEBZ (Badajoz Arpt, --, SP) issued at 1700 UTC 25 Sep 2020
Text:TAF LEBZ 251700Z 2518/2618 35009KT CAVOK TX28/2615Z TN14/2606Z
Forecast period:1800 UTC 25 September 2020 to 1800 UTC 26 September 2020
Forecast type:FROM: standard forecast or significant change
Winds:from the N (350 degrees) at 10 MPH (9 knots; 4.6 m/s)
Visibility:6 or more sm (10+ km)
Clouds:missing